createdAt,value
2018-08-19T00:01:08.880Z,18.40
2018-08-19T00:03:36.967Z,18.60
2018-08-19T00:06:04.846Z,18.60
2018-08-19T00:08:32.690Z,18.70
2018-08-19T00:11:08.691Z,18.80
2018-08-19T00:13:36.931Z,18.80
2018-08-19T00:16:04.720Z,18.70
2018-08-19T00:18:32.916Z,18.60
2018-08-19T00:21:00.690Z,18.50
2018-08-19T00:23:29.541Z,18.50
2018-08-19T00:25:58.135Z,18.50
2018-08-19T00:28:25.853Z,18.60
2018-08-19T00:30:54.036Z,18.50
2018-08-19T00:33:21.747Z,18.50
2018-08-19T00:35:49.578Z,18.50
2018-08-19T00:38:17.625Z,18.40
2018-08-19T00:40:45.312Z,18.50
2018-08-19T00:43:13.022Z,18.60
2018-08-19T00:45:41.008Z,18.50
2018-08-19T00:48:10.632Z,18.60
2018-08-19T00:50:38.430Z,18.60
2018-08-19T00:53:07.196Z,18.60
2018-08-19T00:55:40.909Z,18.50
2018-08-19T00:58:15.967Z,18.60
2018-08-19T01:00:43.740Z,18.60
2018-08-19T01:03:12.245Z,18.50
2018-08-19T01:05:40.175Z,18.50
2018-08-19T01:08:08.508Z,18.50
2018-08-19T01:10:36.260Z,18.60
2018-08-19T01:13:04.044Z,18.60
2018-08-19T01:15:31.830Z,18.50
2018-08-19T01:17:59.599Z,18.40
2018-08-19T01:20:27.426Z,18.40
2018-08-19T01:22:55.495Z,18.50
2018-08-19T01:25:23.233Z,18.50
2018-08-19T01:27:52.084Z,18.50
2018-08-19T01:30:21.320Z,18.40
2018-08-19T01:32:49.177Z,18.50
2018-08-19T01:35:17.453Z,18.40
2018-08-19T01:37:45.268Z,18.40
2018-08-19T01:40:16.532Z,18.40
2018-08-19T01:42:44.940Z,18.20
2018-08-19T01:45:12.814Z,18.20
2018-08-19T01:47:40.620Z,18.20
2018-08-19T01:50:11.279Z,18.30
2018-08-19T01:52:39.456Z,18.30
2018-08-19T01:55:07.366Z,18.30
2018-08-19T01:57:40.560Z,18.40
2018-08-19T02:00:08.784Z,18.30
2018-08-19T02:02:42.639Z,18.30
2018-08-19T02:05:10.355Z,18.30
2018-08-19T02:07:50.714Z,18.20
2018-08-19T02:10:21.167Z,18.20
2018-08-19T02:12:51.311Z,18.10
2018-08-19T02:15:20.638Z,18.20
2018-08-19T02:17:58.723Z,18.30
2018-08-19T02:20:31.207Z,18.30
2018-08-19T02:22:59.968Z,18.20
2018-08-19T02:25:31.685Z,18.10
2018-08-19T02:27:59.314Z,18.10
2018-08-19T02:30:27.293Z,18.20
2018-08-19T02:32:55.656Z,18.30
2018-08-19T02:35:23.256Z,18.30
2018-08-19T02:37:50.883Z,18.30
2018-08-19T02:40:23.979Z,18.30
2018-08-19T02:42:51.583Z,18.20
2018-08-19T02:45:19.168Z,18.30
2018-08-19T02:47:46.734Z,18.30
2018-08-19T02:50:14.335Z,18.20
2018-08-19T02:52:41.963Z,18.20
2018-08-19T02:55:09.550Z,18.20
2018-08-19T02:57:39.575Z,18.10
2018-08-19T03:00:07.919Z,18.10
2018-08-19T03:02:37.118Z,18.10
2018-08-19T03:05:05.501Z,18.00
2018-08-19T03:07:33.233Z,18.00
2018-08-19T03:10:06.196Z,18.00
2018-08-19T03:12:33.916Z,18.00
2018-08-19T03:15:01.571Z,18.00
2018-08-19T03:17:30.014Z,17.90
2018-08-19T03:19:58.534Z,17.70
2018-08-19T03:22:26.906Z,17.70
2018-08-19T03:24:55.056Z,17.80
2018-08-19T03:27:22.652Z,17.70
2018-08-19T03:29:57.885Z,17.80
2018-08-19T03:32:25.825Z,17.70
2018-08-19T03:35:35.052Z,17.70
2018-08-19T03:38:07.410Z,17.60
2018-08-19T03:40:35.447Z,17.50
2018-08-19T03:43:03.036Z,17.70
2018-08-19T03:45:30.807Z,17.70
2018-08-19T03:47:58.403Z,17.80
2018-08-19T03:50:26.921Z,17.80
2018-08-19T03:52:55.263Z,17.80
2018-08-19T03:55:32.908Z,17.60
2018-08-19T03:58:02.508Z,17.60
2018-08-19T04:00:32.172Z,17.60
2018-08-19T04:02:59.740Z,17.60
2018-08-19T04:05:38.363Z,17.70
2018-08-19T04:08:06.763Z,17.70
2018-08-19T04:10:34.368Z,17.60
2018-08-19T04:13:02.430Z,17.60
2018-08-19T04:15:30.037Z,17.50
2018-08-19T04:17:57.664Z,17.60
2018-08-19T04:20:26.074Z,17.60
2018-08-19T04:22:53.781Z,17.60
2018-08-19T04:25:40.008Z,17.60
2018-08-19T04:28:08.560Z,17.60
2018-08-19T04:30:36.152Z,17.60
2018-08-19T04:33:03.753Z,17.60
2018-08-19T04:35:31.876Z,17.60
2018-08-19T04:37:59.455Z,17.60
2018-08-19T04:40:29.799Z,17.60
2018-08-19T04:42:57.536Z,17.60
2018-08-19T04:45:26.803Z,17.60
2018-08-19T04:47:55.695Z,17.60
2018-08-19T04:50:23.893Z,17.60
2018-08-19T04:52:51.476Z,17.70
2018-08-19T04:55:19.193Z,17.60
2018-08-19T04:57:51.716Z,17.70
2018-08-19T05:00:20.261Z,17.70
2018-08-19T05:02:47.934Z,17.70
2018-08-19T05:05:15.629Z,17.80
2018-08-19T05:07:43.641Z,17.90
2018-08-19T05:10:15.003Z,18.00
2018-08-19T05:12:42.644Z,18.20
2018-08-19T05:15:10.259Z,18.30
2018-08-19T05:17:37.876Z,18.30
2018-08-19T05:20:12.932Z,18.30
2018-08-19T05:22:40.654Z,18.30
2018-08-19T05:25:08.254Z,18.20
2018-08-19T05:27:36.274Z,18.20
2018-08-19T05:30:08.311Z,18.30
2018-08-19T05:32:35.896Z,18.30
2018-08-19T05:35:03.501Z,18.40
2018-08-19T05:37:31.084Z,18.60
2018-08-19T05:39:59.808Z,18.70
2018-08-19T05:42:27.439Z,18.80
2018-08-19T05:44:55.091Z,18.90
2018-08-19T05:47:24.455Z,19.00
2018-08-19T05:49:52.317Z,19.20
2018-08-19T05:52:22.902Z,19.30
2018-08-19T05:54:54.005Z,19.30
2018-08-19T05:57:21.647Z,19.40
2018-08-19T05:59:58.894Z,19.40
2018-08-19T06:02:35.836Z,19.50
2018-08-19T06:05:03.929Z,19.50
2018-08-19T06:07:31.607Z,19.90
2018-08-19T06:09:59.204Z,20.20
2018-08-19T06:12:26.821Z,20.10
2018-08-19T06:15:00.881Z,20.20
2018-08-19T06:17:55.140Z,20.30
2018-08-19T06:20:23.867Z,20.20
2018-08-19T06:22:51.858Z,20.20
2018-08-19T06:25:19.861Z,20.30
2018-08-19T06:27:48.858Z,20.50
2018-08-19T06:30:19.262Z,20.50
2018-08-19T06:32:46.929Z,20.60
2018-08-19T06:35:17.187Z,20.80
2018-08-19T06:37:47.596Z,21.50
2018-08-19T06:40:19.588Z,23.00
2018-08-19T06:42:47.899Z,24.90
2018-08-19T06:45:17.019Z,26.90
2018-08-19T06:47:49.407Z,28.10
2018-08-19T06:50:24.820Z,29.30
2018-08-19T06:52:53.120Z,29.50
2018-08-19T06:55:21.412Z,30.50
2018-08-19T06:57:49.388Z,30.00
2018-08-19T07:00:23.565Z,29.70
2018-08-19T07:02:51.310Z,29.30
2018-08-19T07:05:19.421Z,30.20
2018-08-19T07:07:47.153Z,31.20
2018-08-19T07:10:22.742Z,31.50
2018-08-19T07:12:57.352Z,32.20
2018-08-19T07:15:24.986Z,32.50
2018-08-19T07:17:53.496Z,32.50
2018-08-19T07:20:36.215Z,33.00
2018-08-19T07:23:03.882Z,33.40
2018-08-19T07:25:38.119Z,34.20
2018-08-19T07:28:06.166Z,34.90
2018-08-19T07:30:33.847Z,35.80
2018-08-19T07:33:04.063Z,35.20
2018-08-19T07:35:31.738Z,35.00
2018-08-19T07:37:59.452Z,33.60
2018-08-19T07:40:27.447Z,34.40
2018-08-19T07:42:55.167Z,34.90
2018-08-19T07:45:22.827Z,34.30
2018-08-19T07:47:50.758Z,33.90
2018-08-19T07:50:18.414Z,34.50
2018-08-19T07:52:46.058Z,35.20
2018-08-19T07:55:18.139Z,35.90
2018-08-19T07:57:45.910Z,34.80
2018-08-19T08:00:18.714Z,34.70
2018-08-19T08:02:46.378Z,35.00
2018-08-19T08:05:14.031Z,34.20
2018-08-19T08:07:45.677Z,35.30
2018-08-19T08:10:13.332Z,35.10
2018-08-19T08:12:41.054Z,34.50
2018-08-19T08:15:08.961Z,34.70
2018-08-19T08:17:37.388Z,35.20
2018-08-19T08:20:05.074Z,35.00
2018-08-19T08:22:33.658Z,34.70
2018-08-19T08:25:01.498Z,34.80
2018-08-19T08:27:30.275Z,35.10
2018-08-19T08:29:58.589Z,35.20
2018-08-19T08:32:26.253Z,35.00
2018-08-19T08:34:55.914Z,35.70
2018-08-19T08:37:23.859Z,35.70
2018-08-19T08:39:57.190Z,35.40
2018-08-19T08:42:29.187Z,35.90
2018-08-19T08:44:56.820Z,36.50
2018-08-19T08:47:24.437Z,37.40
2018-08-19T08:49:52.322Z,37.90
2018-08-19T08:52:24.470Z,35.90
2018-08-19T08:54:53.538Z,36.80
2018-08-19T08:57:23.504Z,35.70
2018-08-19T08:59:51.539Z,35.20
2018-08-19T09:02:19.148Z,35.70
2018-08-19T09:04:59.208Z,36.10
2018-08-19T09:07:27.103Z,35.60
2018-08-19T09:09:54.827Z,36.00
2018-08-19T09:12:28.440Z,35.20
2018-08-19T09:14:56.054Z,36.40
2018-08-19T09:17:25.299Z,35.70
2018-08-19T09:19:52.908Z,36.60
2018-08-19T09:22:20.516Z,37.00
2018-08-19T09:24:48.816Z,36.40
2018-08-19T09:27:17.530Z,36.90
2018-08-19T09:30:48.413Z,36.60
2018-08-19T09:33:16.032Z,36.30
2018-08-19T09:35:44.414Z,34.70
2018-08-19T09:38:16.403Z,32.40
2018-08-19T09:40:44.484Z,31.50
2018-08-19T09:43:19.549Z,32.00
2018-08-19T09:45:47.569Z,31.00
2018-08-19T09:48:15.624Z,30.60
2018-08-19T09:50:43.820Z,31.30
2018-08-19T09:53:11.480Z,30.40
2018-08-19T09:55:40.242Z,28.80
2018-08-19T09:58:10.539Z,28.70
2018-08-19T10:00:43.659Z,28.90
2018-08-19T10:03:11.357Z,29.50
2018-08-19T10:05:39.421Z,30.20
2018-08-19T10:08:08.659Z,31.20
2018-08-19T10:10:37.268Z,30.20
2018-08-19T10:13:06.130Z,30.30
2018-08-19T10:15:35.010Z,29.90
2018-08-19T10:18:05.059Z,29.10
2018-08-19T10:20:35.184Z,29.50
2018-08-19T10:23:04.074Z,29.60
2018-08-19T10:25:31.729Z,30.70
2018-08-19T10:27:59.883Z,30.40
2018-08-19T10:30:27.498Z,30.20
2018-08-19T10:33:02.004Z,30.60
2018-08-19T10:35:30.522Z,30.70
2018-08-19T10:37:58.607Z,31.20
2018-08-19T10:40:26.237Z,31.80
2018-08-19T10:42:58.064Z,31.30
2018-08-19T10:45:25.809Z,31.10
2018-08-19T10:47:53.525Z,31.30
2018-08-19T10:50:25.903Z,31.00
2018-08-19T10:52:53.570Z,30.60
2018-08-19T10:55:21.280Z,29.90
2018-08-19T10:57:50.763Z,29.60
2018-08-19T11:00:29.060Z,30.20
2018-08-19T11:03:11.163Z,30.40
2018-08-19T11:05:42.731Z,29.50
2018-08-19T11:08:13.641Z,29.00
2018-08-19T11:10:41.532Z,29.10
2018-08-19T11:13:11.834Z,29.20
2018-08-19T11:15:44.369Z,29.20
2018-08-19T11:18:21.399Z,29.30
2018-08-19T11:20:49.797Z,29.10
2018-08-19T11:23:20.629Z,29.50
2018-08-19T11:25:49.423Z,29.90
2018-08-19T11:28:23.708Z,29.40
2018-08-19T11:30:51.632Z,29.30
2018-08-19T11:33:24.981Z,29.00
2018-08-19T11:35:53.071Z,28.90
2018-08-19T11:38:20.982Z,29.30
2018-08-19T11:40:48.728Z,29.40
2018-08-19T11:43:36.089Z,29.80
2018-08-19T11:46:06.844Z,30.40
2018-08-19T11:48:36.433Z,31.20
2018-08-19T11:51:04.687Z,29.40
2018-08-19T11:53:32.778Z,30.30
2018-08-19T11:56:18.744Z,30.00
2018-08-19T11:58:50.427Z,30.50
2018-08-19T12:01:25.089Z,30.20
2018-08-19T12:03:58.312Z,29.90
2018-08-19T12:06:27.676Z,30.00
2018-08-19T12:08:57.821Z,31.10
2018-08-19T12:11:27.952Z,31.30
2018-08-19T12:14:02.174Z,31.80
2018-08-19T12:16:31.455Z,31.70
2018-08-19T12:19:00.084Z,30.80
2018-08-19T12:21:34.958Z,30.30
2018-08-19T12:24:14.448Z,30.30
2018-08-19T12:26:43.772Z,30.30
2018-08-19T12:29:13.271Z,30.50
2018-08-19T12:31:49.561Z,30.50
2018-08-19T12:34:44.383Z,29.90
2018-08-19T12:37:23.345Z,29.30
2018-08-19T12:39:52.854Z,29.40
2018-08-19T12:42:21.029Z,29.10
2018-08-19T12:44:59.044Z,29.30
2018-08-19T12:47:28.122Z,29.10
2018-08-19T12:50:00.109Z,29.60
2018-08-19T12:52:29.487Z,29.60
2018-08-19T12:55:01.755Z,29.30
2018-08-19T12:57:29.602Z,29.00
2018-08-19T13:00:02.185Z,29.30
2018-08-19T13:02:31.332Z,29.10
2018-08-19T13:04:59.211Z,29.20
2018-08-19T13:07:26.963Z,29.30
2018-08-19T13:09:55.115Z,29.00
2018-08-19T13:12:22.789Z,29.20
2018-08-19T13:14:50.427Z,29.20
2018-08-19T13:17:18.614Z,29.20
2018-08-19T13:19:47.816Z,29.10
2018-08-19T13:22:15.424Z,29.20
2018-08-19T13:24:43.427Z,29.40
2018-08-19T13:27:11.644Z,29.80
2018-08-19T13:29:39.277Z,29.60
2018-08-19T13:32:07.443Z,29.50
2018-08-19T13:34:35.116Z,29.60
2018-08-19T13:37:05.371Z,29.40
2018-08-19T13:39:36.020Z,29.50
2018-08-19T13:42:06.226Z,29.50
2018-08-19T13:47:55.222Z,29.60
2018-08-19T13:50:26.066Z,29.60
2018-08-19T13:52:54.160Z,29.70
2018-08-19T13:55:22.641Z,29.50
2018-08-19T13:57:52.576Z,29.40
2018-08-19T14:00:22.011Z,29.30
2018-08-19T14:02:50.584Z,29.00
2018-08-19T14:05:18.292Z,29.20
2018-08-19T14:07:46.351Z,29.30
2018-08-19T14:10:14.498Z,29.30
2018-08-19T14:12:42.142Z,29.60
2018-08-19T14:15:10.180Z,29.80
2018-08-19T14:17:38.098Z,29.80
2018-08-19T14:20:06.349Z,29.50
2018-08-19T14:22:35.517Z,29.50
2018-08-19T14:25:03.339Z,29.70
2018-08-19T14:27:31.048Z,29.70
2018-08-19T14:30:00.688Z,29.70
2018-08-19T14:32:33.163Z,29.50
2018-08-19T14:35:02.164Z,29.70
2018-08-19T14:37:37.581Z,29.50
2018-08-19T14:40:06.187Z,29.60
2018-08-19T14:42:33.984Z,29.70
2018-08-19T14:45:01.609Z,29.60
2018-08-19T14:47:29.414Z,29.40
2018-08-19T14:49:59.695Z,29.30
2018-08-19T14:52:27.828Z,29.30
2018-08-19T14:54:55.432Z,29.50
2018-08-19T14:57:23.543Z,29.70
2018-08-19T14:59:51.167Z,29.50
2018-08-19T15:02:18.899Z,29.30
2018-08-19T15:04:47.349Z,29.30
2018-08-19T15:07:25.047Z,29.30
2018-08-19T15:09:53.247Z,29.50
2018-08-19T15:12:23.129Z,29.40
2018-08-19T15:14:55.818Z,29.40
2018-08-19T15:17:25.912Z,29.20
2018-08-19T15:20:06.224Z,29.20
2018-08-19T15:22:36.353Z,29.20
2018-08-19T15:25:05.884Z,29.10
2018-08-19T15:27:34.003Z,29.30
2018-08-19T15:30:02.032Z,29.30
2018-08-19T15:32:29.884Z,29.30
2018-08-19T15:34:57.337Z,29.30
2018-08-19T15:37:26.582Z,29.30
2018-08-19T15:39:54.304Z,29.50
2018-08-19T15:42:23.293Z,29.20
2018-08-19T15:44:51.341Z,29.20
2018-08-19T15:47:19.041Z,29.10
2018-08-19T15:49:47.330Z,28.90
2018-08-19T15:52:19.371Z,28.90
2018-08-19T15:54:51.378Z,28.80
2018-08-19T15:57:19.001Z,28.90
2018-08-19T15:59:46.903Z,28.80
2018-08-19T16:02:14.573Z,28.80
2018-08-19T16:04:46.341Z,28.90
2018-08-19T16:07:23.439Z,28.90
2018-08-19T16:09:51.259Z,28.80
2018-08-19T16:12:30.677Z,28.90
2018-08-19T16:15:00.759Z,28.80
2018-08-19T16:20:16.515Z,28.90
2018-08-19T16:22:44.095Z,28.70
2018-08-19T16:25:11.683Z,28.60
2018-08-19T16:27:39.958Z,28.70
2018-08-19T16:30:07.588Z,28.50
2018-08-19T16:32:35.247Z,28.40
2018-08-19T16:35:04.428Z,28.40
2018-08-19T16:37:32.101Z,28.50
2018-08-19T16:39:59.829Z,28.50
2018-08-19T16:42:27.757Z,28.40
2018-08-19T16:44:55.393Z,28.40
2018-08-19T16:47:22.999Z,28.40
2018-08-19T16:49:50.930Z,28.30
2018-08-19T16:52:18.678Z,28.20
2018-08-19T16:54:46.288Z,28.00
2018-08-19T16:57:31.047Z,28.00
2018-08-19T16:59:58.676Z,28.10
2018-08-19T17:02:27.827Z,28.10
2018-08-19T17:04:55.756Z,28.00
2018-08-19T17:07:23.419Z,27.90
2018-08-19T17:09:51.051Z,27.80
2018-08-19T17:12:19.913Z,27.90
2018-08-19T17:14:47.514Z,27.90
2018-08-19T17:17:17.426Z,27.80
2018-08-19T17:19:47.181Z,27.70
2018-08-19T17:22:15.074Z,27.70
2018-08-19T17:24:42.726Z,27.40
2018-08-19T17:27:10.649Z,27.00
2018-08-19T17:29:58.771Z,26.90
2018-08-19T17:32:26.957Z,26.80
2018-08-19T17:34:55.229Z,26.70
2018-08-19T17:37:23.070Z,26.50
2018-08-19T17:39:51.180Z,26.50
2018-08-19T17:42:20.613Z,26.50
2018-08-19T17:44:48.253Z,26.10
2018-08-19T17:47:42.105Z,25.80
2018-08-19T17:50:27.107Z,25.90
2018-08-19T17:52:57.807Z,25.80
2018-08-19T17:55:25.656Z,25.70
2018-08-19T17:57:57.981Z,25.50
2018-08-19T18:00:38.839Z,25.20
2018-08-19T18:03:06.792Z,25.10
2018-08-19T18:05:36.077Z,25.30
2018-08-19T18:08:07.181Z,25.20
2018-08-19T18:10:36.580Z,25.30
2018-08-19T18:13:12.435Z,25.30
2018-08-19T18:15:41.212Z,25.20
2018-08-19T18:18:15.686Z,25.10
2018-08-19T18:20:43.304Z,24.80
2018-08-19T18:23:16.705Z,24.50
2018-08-19T18:25:47.419Z,24.20
2018-08-19T18:28:33.304Z,24.00
2018-08-19T18:31:15.648Z,24.20
2018-08-19T18:34:02.282Z,24.20
2018-08-19T18:36:33.954Z,24.30
2018-08-19T18:39:05.241Z,24.20
2018-08-19T18:41:34.484Z,24.10
2018-08-19T18:44:13.967Z,24.00
2018-08-19T18:46:50.077Z,23.60
2018-08-19T18:49:22.025Z,23.50
2018-08-19T18:51:54.017Z,23.50
2018-08-19T18:54:34.173Z,23.60
2018-08-19T18:57:05.960Z,23.60
2018-08-19T18:59:34.348Z,23.50
2018-08-19T19:02:03.193Z,23.50
2018-08-19T19:04:30.829Z,23.50
2018-08-19T19:06:58.917Z,23.50
2018-08-19T19:09:30.736Z,23.30
2018-08-19T19:11:58.793Z,23.30
2018-08-19T19:14:26.813Z,23.30
2018-08-19T19:16:56.735Z,23.20
2018-08-19T19:19:24.636Z,23.10
2018-08-19T19:21:58.680Z,23.20
2018-08-19T19:24:30.907Z,23.10
2018-08-19T19:26:58.512Z,23.10
2018-08-19T19:29:27.084Z,23.10
2018-08-19T19:32:18.099Z,23.10
2018-08-19T19:34:49.886Z,22.80
2018-08-19T19:37:17.975Z,22.70
2018-08-19T19:39:46.425Z,22.70
2018-08-19T19:42:18.694Z,22.50
2018-08-19T19:44:46.355Z,22.50
2018-08-19T19:47:14.090Z,22.40
2018-08-19T19:49:47.566Z,22.40
2018-08-19T19:52:15.124Z,22.40
2018-08-19T19:54:43.211Z,22.50
2018-08-19T19:57:12.305Z,22.50
2018-08-19T19:59:39.955Z,22.40
2018-08-19T20:02:11.350Z,22.40
2018-08-19T20:04:39.436Z,22.40
2018-08-19T20:07:07.636Z,22.30
2018-08-19T20:09:35.849Z,22.30
2018-08-19T20:12:05.182Z,22.20
2018-08-19T20:14:37.673Z,22.20
2018-08-19T20:17:11.912Z,22.00
2018-08-19T20:19:46.274Z,22.00
2018-08-19T20:22:14.983Z,21.80
2018-08-19T20:24:42.651Z,21.90
2018-08-19T20:27:10.792Z,21.90
2018-08-19T20:29:38.427Z,21.90
2018-08-19T20:32:06.120Z,21.90
2018-08-19T20:34:35.560Z,21.80
2018-08-19T20:37:03.265Z,21.80
2018-08-19T20:39:30.904Z,21.60
2018-08-19T20:42:00.166Z,21.60
2018-08-19T20:44:28.207Z,21.50
2018-08-19T20:46:59.753Z,21.50
2018-08-19T20:49:28.724Z,21.60
2018-08-19T20:51:56.541Z,21.60
2018-08-19T20:54:25.261Z,21.60
2018-08-19T20:56:53.171Z,21.60
2018-08-19T20:59:25.939Z,21.70
2018-08-19T21:01:56.376Z,21.60
2018-08-19T21:04:26.778Z,21.60
2018-08-19T21:06:58.385Z,21.50
2018-08-19T21:09:29.839Z,21.50
2018-08-19T21:11:57.486Z,21.40
2018-08-19T21:18:59.421Z,21.40
2018-08-19T21:21:27.516Z,21.30
2018-08-19T21:23:55.132Z,21.20
2018-08-19T21:26:22.743Z,21.20
2018-08-19T21:28:56.068Z,21.10
2018-08-19T21:31:23.685Z,21.10
2018-08-19T21:33:51.325Z,21.00
2018-08-19T21:36:19.644Z,20.90
2018-08-19T21:38:47.262Z,21.00
2018-08-19T21:41:14.871Z,21.10
2018-08-19T21:43:42.796Z,21.00
2018-08-19T21:46:10.404Z,21.10
2018-08-19T21:48:38.256Z,21.10
2018-08-19T21:51:10.454Z,21.00
2018-08-19T21:53:39.452Z,21.00
2018-08-19T21:56:07.388Z,21.00
2018-08-19T21:58:35.083Z,20.90
2018-08-19T22:01:03.900Z,20.90
2018-08-19T22:03:37.085Z,20.90
2018-08-19T22:06:05.481Z,21.00
2018-08-19T22:08:33.068Z,21.00
2018-08-19T22:11:00.771Z,20.90
2018-08-19T22:13:28.844Z,20.90
2018-08-19T22:15:56.465Z,20.80
2018-08-19T22:18:27.190Z,20.80
2018-08-19T22:21:04.652Z,20.70
2018-08-19T22:23:40.429Z,20.80
2018-08-19T22:26:08.853Z,20.80
2018-08-19T22:28:36.617Z,20.90
2018-08-19T22:31:10.312Z,20.90
2018-08-19T22:33:38.152Z,20.70
2018-08-19T22:36:05.766Z,20.50
2018-08-19T22:38:33.836Z,20.60
2018-08-19T22:41:01.508Z,20.60
2018-08-19T22:43:29.164Z,20.50
2018-08-19T22:45:56.827Z,20.60
2018-08-19T22:48:34.364Z,20.60
2018-08-19T22:51:02.012Z,20.60
2018-08-19T22:53:29.632Z,20.40
2018-08-19T22:55:57.251Z,20.40
2018-08-19T22:58:24.873Z,20.30
2018-08-19T23:00:52.480Z,20.30
2018-08-19T23:03:20.106Z,20.40
2018-08-19T23:05:47.744Z,20.40
2018-08-19T23:08:18.976Z,20.40
2018-08-19T23:10:46.607Z,20.40
2018-08-19T23:13:24.281Z,20.30
2018-08-19T23:15:51.880Z,20.10
2018-08-19T23:18:19.480Z,20.10
2018-08-19T23:20:47.059Z,20.20
2018-08-19T23:23:15.005Z,20.20
2018-08-19T23:25:42.661Z,20.20
2018-08-19T23:28:10.333Z,20.30
2018-08-19T23:30:37.917Z,20.20
2018-08-19T23:33:05.850Z,20.10
2018-08-19T23:35:33.539Z,20.10
2018-08-19T23:38:01.163Z,19.90
2018-08-19T23:40:28.739Z,20.00
2018-08-19T23:42:56.319Z,19.80
2018-08-19T23:45:24.028Z,19.80
2018-08-19T23:47:51.632Z,19.90
2018-08-19T23:50:19.260Z,20.00
2018-08-19T23:52:47.132Z,20.00
2018-08-19T23:55:14.799Z,19.90
2018-08-19T23:57:42.417Z,19.90
